sensor_id;sensor_type;location;lat;lon;timestamp;P1;durP1;ratioP1;P2;durP2;ratioP2
18806;SDS011;9531;52.030;4.380;2022-11-25T00:01:57;681.97;;;214.10;;
18806;SDS011;9531;52.030;4.380;2022-11-25T00:04:26;675.67;;;219.48;;
18806;SDS011;9531;52.030;4.380;2022-11-25T00:06:58;689.20;;;228.70;;
18806;SDS011;9531;52.030;4.380;2022-11-25T00:09:32;683.45;;;230.20;;
18806;SDS011;9531;52.030;4.380;2022-11-25T00:12:16;679.45;;;229.07;;
18806;SDS011;9531;52.030;4.380;2022-11-25T00:14:45;684.17;;;237.05;;
18806;SDS011;9531;52.030;4.380;2022-11-25T00:17:12;679.42;;;231.82;;
18806;SDS011;9531;52.030;4.380;2022-11-25T00:19:39;680.92;;;230.05;;
18806;SDS011;9531;52.030;4.380;2022-11-25T00:22:06;673.42;;;234.95;;
18806;SDS011;9531;52.030;4.380;2022-11-25T00:24:35;674.58;;;240.25;;
18806;SDS011;9531;52.030;4.380;2022-11-25T00:27:02;665.05;;;247.05;;
18806;SDS011;9531;52.030;4.380;2022-11-25T00:29:29;677.88;;;246.02;;
18806;SDS011;9531;52.030;4.380;2022-11-25T00:31:58;675.30;;;235.35;;
18806;SDS011;9531;52.030;4.380;2022-11-25T00:34:25;666.42;;;231.90;;
18806;SDS011;9531;52.030;4.380;2022-11-25T00:36:52;667.90;;;238.75;;
18806;SDS011;9531;52.030;4.380;2022-11-25T00:39:20;657.92;;;202.13;;
18806;SDS011;9531;52.030;4.380;2022-11-25T00:41:48;661.85;;;203.32;;
18806;SDS011;9531;52.030;4.380;2022-11-25T00:44:33;651.08;;;205.60;;
18806;SDS011;9531;52.030;4.380;2022-11-25T00:47:06;656.53;;;200.07;;
18806;SDS011;9531;52.030;4.380;2022-11-25T00:49:34;653.03;;;207.18;;
18806;SDS011;9531;52.030;4.380;2022-11-25T00:52:02;653.70;;;209.90;;
18806;SDS011;9531;52.030;4.380;2022-11-25T00:54:30;654.33;;;202.00;;
18806;SDS011;9531;52.030;4.380;2022-11-25T00:56:58;660.33;;;209.70;;
18806;SDS011;9531;52.030;4.380;2022-11-25T00:59:33;657.75;;;209.95;;
18806;SDS011;9531;52.030;4.380;2022-11-25T01:02:01;641.15;;;197.48;;
18806;SDS011;9531;52.030;4.380;2022-11-25T01:04:38;636.38;;;196.35;;
18806;SDS011;9531;52.030;4.380;2022-11-25T01:07:07;655.33;;;203.05;;
18806;SDS011;9531;52.030;4.380;2022-11-25T01:09:39;648.33;;;199.50;;
18806;SDS011;9531;52.030;4.380;2022-11-25T01:12:07;690.10;;;212.90;;
18806;SDS011;9531;52.030;4.380;2022-11-25T01:14:40;667.65;;;203.63;;
18806;SDS011;9531;52.030;4.380;2022-11-25T01:17:09;660.13;;;205.55;;
18806;SDS011;9531;52.030;4.380;2022-11-25T01:19:38;662.20;;;207.10;;
18806;SDS011;9531;52.030;4.380;2022-11-25T01:22:06;675.28;;;212.68;;
18806;SDS011;9531;52.030;4.380;2022-11-25T01:24:34;674.22;;;208.90;;
18806;SDS011;9531;52.030;4.380;2022-11-25T01:27:04;659.45;;;203.20;;
18806;SDS011;9531;52.030;4.380;2022-11-25T01:29:35;664.55;;;198.60;;
18806;SDS011;9531;52.030;4.380;2022-11-25T01:32:05;656.70;;;199.32;;
18806;SDS011;9531;52.030;4.380;2022-11-25T01:34:34;645.88;;;198.00;;
18806;SDS011;9531;52.030;4.380;2022-11-25T01:37:04;652.03;;;202.80;;
18806;SDS011;9531;52.030;4.380;2022-11-25T01:39:45;659.40;;;213.27;;
18806;SDS011;9531;52.030;4.380;2022-11-25T01:42:17;662.88;;;213.13;;
18806;SDS011;9531;52.030;4.380;2022-11-25T01:47:48;676.13;;;203.25;;
18806;SDS011;9531;52.030;4.380;2022-11-25T01:50:17;680.88;;;217.35;;
18806;SDS011;9531;52.030;4.380;2022-11-25T01:52:51;684.83;;;224.77;;
18806;SDS011;9531;52.030;4.380;2022-11-25T01:55:27;687.63;;;222.48;;
18806;SDS011;9531;52.030;4.380;2022-11-25T01:58:01;668.58;;;218.75;;
18806;SDS011;9531;52.030;4.380;2022-11-25T02:00:44;681.83;;;226.27;;
18806;SDS011;9531;52.030;4.380;2022-11-25T02:03:31;668.85;;;214.85;;
18806;SDS011;9531;52.030;4.380;2022-11-25T02:06:08;671.83;;;202.05;;
18806;SDS011;9531;52.030;4.380;2022-11-25T02:08:42;679.05;;;212.75;;
18806;SDS011;9531;52.030;4.380;2022-11-25T02:11:33;674.38;;;219.32;;
18806;SDS011;9531;52.030;4.380;2022-11-25T02:14:17;672.55;;;221.75;;
18806;SDS011;9531;52.030;4.380;2022-11-25T02:17:03;680.03;;;211.23;;
18806;SDS011;9531;52.030;4.380;2022-11-25T02:19:55;672.53;;;218.82;;
18806;SDS011;9531;52.030;4.380;2022-11-25T02:22:41;675.33;;;220.15;;
18806;SDS011;9531;52.030;4.380;2022-11-25T02:25:23;671.95;;;215.88;;
18806;SDS011;9531;52.030;4.380;2022-11-25T02:28:08;670.00;;;215.55;;
18806;SDS011;9531;52.030;4.380;2022-11-25T02:30:59;673.13;;;219.23;;
18806;SDS011;9531;52.030;4.380;2022-11-25T02:33:49;667.75;;;216.80;;
18806;SDS011;9531;52.030;4.380;2022-11-25T02:39:00;670.95;;;220.02;;
18806;SDS011;9531;52.030;4.380;2022-11-25T02:44:34;674.27;;;220.80;;
18806;SDS011;9531;52.030;4.380;2022-11-25T02:47:26;671.97;;;221.82;;
18806;SDS011;9531;52.030;4.380;2022-11-25T02:50:24;665.15;;;225.68;;
18806;SDS011;9531;52.030;4.380;2022-11-25T02:53:09;675.88;;;227.18;;
18806;SDS011;9531;52.030;4.380;2022-11-25T02:55:56;675.00;;;236.15;;
18806;SDS011;9531;52.030;4.380;2022-11-25T03:12:04;657.38;;;213.63;;
18806;SDS011;9531;52.030;4.380;2022-11-25T03:15:12;662.23;;;214.53;;
18806;SDS011;9531;52.030;4.380;2022-11-25T04:49:39;649.00;;;216.43;;
18806;SDS011;9531;52.030;4.380;2022-11-25T06:09:17;648.03;;;228.97;;
18806;SDS011;9531;52.030;4.380;2022-11-25T06:21:40;631.13;;;179.90;;
18806;SDS011;9531;52.030;4.380;2022-11-25T06:24:27;646.90;;;189.47;;
18806;SDS011;9531;52.030;4.380;2022-11-25T06:27:25;643.93;;;194.43;;
18806;SDS011;9531;52.030;4.380;2022-11-25T06:30:18;634.37;;;187.33;;
18806;SDS011;9531;52.030;4.380;2022-11-25T06:33:09;632.53;;;185.07;;
18806;SDS011;9531;52.030;4.380;2022-11-25T06:36:15;622.57;;;170.57;;
18806;SDS011;9531;52.030;4.380;2022-11-25T06:42:47;635.33;;;204.57;;
18806;SDS011;9531;52.030;4.380;2022-11-25T06:46:25;633.63;;;190.93;;
18806;SDS011;9531;52.030;4.380;2022-11-25T07:02:47;621.93;;;190.93;;
18806;SDS011;9531;52.030;4.380;2022-11-25T07:06:49;629.23;;;199.47;;
18806;SDS011;9531;52.030;4.380;2022-11-25T07:16:55;627.50;;;204.73;;
18806;SDS011;9531;52.030;4.380;2022-11-25T07:26:51;622.47;;;189.50;;
18806;SDS011;9531;52.030;4.380;2022-11-25T07:36:12;623.80;;;187.73;;
18806;SDS011;9531;52.030;4.380;2022-11-25T07:38:56;619.90;;;182.03;;
18806;SDS011;9531;52.030;4.380;2022-11-25T07:41:29;631.93;;;184.50;;
18806;SDS011;9531;52.030;4.380;2022-11-25T07:44:09;617.73;;;176.47;;
18806;SDS011;9531;52.030;4.380;2022-11-25T07:46:51;622.73;;;189.33;;
18806;SDS011;9531;52.030;4.380;2022-11-25T07:49:29;625.33;;;182.97;;
18806;SDS011;9531;52.030;4.380;2022-11-25T07:52:31;624.13;;;190.27;;
18806;SDS011;9531;52.030;4.380;2022-11-25T08:13:57;626.30;;;199.03;;
18806;SDS011;9531;52.030;4.380;2022-11-25T08:25:16;629.97;;;189.13;;
18806;SDS011;9531;52.030;4.380;2022-11-25T08:49:06;645.60;;;205.20;;
18806;SDS011;9531;52.030;4.380;2022-11-25T08:51:55;652.40;;;211.53;;
18806;SDS011;9531;52.030;4.380;2022-11-25T08:54:55;644.73;;;225.47;;
18806;SDS011;9531;52.030;4.380;2022-11-25T09:01:22;645.07;;;215.70;;
18806;SDS011;9531;52.030;4.380;2022-11-25T09:04:17;638.63;;;224.43;;
18806;SDS011;9531;52.030;4.380;2022-11-25T09:27:13;635.77;;;201.20;;
18806;SDS011;9531;52.030;4.380;2022-11-25T10:08:56;666.80;;;213.52;;
18806;SDS011;9531;52.030;4.380;2022-11-25T10:15:14;687.85;;;203.43;;
18806;SDS011;9531;52.030;4.380;2022-11-25T10:18:12;715.88;;;205.38;;
18806;SDS011;9531;52.030;4.380;2022-11-25T10:22:20;733.10;;;220.50;;
18806;SDS011;9531;52.030;4.380;2022-11-25T10:24:20;760.50;;;224.85;;
18806;SDS011;9531;52.030;4.380;2022-11-25T10:37:16;930.00;;;266.17;;
18806;SDS011;9531;52.030;4.380;2022-11-25T10:40:19;920.03;;;252.73;;
18806;SDS011;9531;52.030;4.380;2022-11-25T10:45:57;823.03;;;279.23;;
18806;SDS011;9531;52.030;4.380;2022-11-25T10:48:58;848.25;;;313.83;;
18806;SDS011;9531;52.030;4.380;2022-11-25T10:54:17;850.42;;;300.65;;
18806;SDS011;9531;52.030;4.380;2022-11-25T10:58:53;848.67;;;283.83;;
18806;SDS011;9531;52.030;4.380;2022-11-25T11:01:47;859.42;;;282.60;;
18806;SDS011;9531;52.030;4.380;2022-11-25T11:04:36;858.25;;;278.55;;
18806;SDS011;9531;52.030;4.380;2022-11-25T11:07:49;867.63;;;309.02;;
18806;SDS011;9531;52.030;4.380;2022-11-25T11:14:25;883.95;;;299.80;;
18806;SDS011;9531;52.030;4.380;2022-11-25T11:17:08;870.38;;;295.63;;
18806;SDS011;9531;52.030;4.380;2022-11-25T11:52:38;867.60;;;318.90;;
18806;SDS011;9531;52.030;4.380;2022-11-25T11:55:50;861.22;;;291.33;;
18806;SDS011;9531;52.030;4.380;2022-11-25T12:02:27;851.13;;;291.30;;
18806;SDS011;9531;52.030;4.380;2022-11-25T12:05:28;834.47;;;265.27;;
18806;SDS011;9531;52.030;4.380;2022-11-25T12:15:00;830.15;;;259.13;;
18806;SDS011;9531;52.030;4.380;2022-11-25T12:21:15;814.20;;;257.30;;
18806;SDS011;9531;52.030;4.380;2022-11-25T13:14:38;767.70;;;239.77;;
18806;SDS011;9531;52.030;4.380;2022-11-25T13:22:29;769.75;;;253.23;;
18806;SDS011;9531;52.030;4.380;2022-11-25T13:25:25;786.33;;;256.33;;
18806;SDS011;9531;52.030;4.380;2022-11-25T13:28:31;784.58;;;242.63;;
18806;SDS011;9531;52.030;4.380;2022-11-25T13:31:22;786.05;;;269.02;;
18806;SDS011;9531;52.030;4.380;2022-11-25T13:34:41;791.65;;;272.92;;
18806;SDS011;9531;52.030;4.380;2022-11-25T13:38:05;795.72;;;284.17;;
18806;SDS011;9531;52.030;4.380;2022-11-25T13:48:28;781.05;;;265.80;;
18806;SDS011;9531;52.030;4.380;2022-11-25T14:01:31;768.92;;;237.40;;
18806;SDS011;9531;52.030;4.380;2022-11-25T14:04:18;770.42;;;255.23;;
18806;SDS011;9531;52.030;4.380;2022-11-25T14:07:32;772.13;;;255.32;;
18806;SDS011;9531;52.030;4.380;2022-11-25T14:10:59;755.50;;;223.40;;
18806;SDS011;9531;52.030;4.380;2022-11-25T14:51:32;765.00;;;251.13;;
18806;SDS011;9531;52.030;4.380;2022-11-25T14:54:07;778.00;;;253.65;;
18806;SDS011;9531;52.030;4.380;2022-11-25T15:04:00;748.85;;;226.43;;
18806;SDS011;9531;52.030;4.380;2022-11-25T15:13:57;733.00;;;193.75;;
18806;SDS011;9531;52.030;4.380;2022-11-25T15:16:50;772.65;;;269.90;;
18806;SDS011;9531;52.030;4.380;2022-11-25T15:25:06;753.28;;;262.42;;
18806;SDS011;9531;52.030;4.380;2022-11-25T15:44:55;735.30;;;233.75;;
18806;SDS011;9531;52.030;4.380;2022-11-25T18:37:38;624.30;;;229.48;;
18806;SDS011;9531;52.030;4.380;2022-11-25T18:40:32;596.58;;;211.27;;
18806;SDS011;9531;52.030;4.380;2022-11-25T19:32:51;554.80;;;162.87;;
18806;SDS011;9531;52.030;4.380;2022-11-25T19:36:58;564.27;;;162.80;;
18806;SDS011;9531;52.030;4.380;2022-11-25T19:42:57;556.10;;;166.17;;
18806;SDS011;9531;52.030;4.380;2022-11-25T19:49:41;560.53;;;176.93;;
18806;SDS011;9531;52.030;4.380;2022-11-25T20:00:24;543.33;;;162.97;;
18806;SDS011;9531;52.030;4.380;2022-11-25T22:05:40;552.83;;;202.83;;
18806;SDS011;9531;52.030;4.380;2022-11-25T22:08:31;571.13;;;213.73;;
18806;SDS011;9531;52.030;4.380;2022-11-25T22:11:43;562.03;;;208.13;;
18806;SDS011;9531;52.030;4.380;2022-11-25T22:14:33;576.00;;;187.30;;
18806;SDS011;9531;52.030;4.380;2022-11-25T22:17:19;527.17;;;160.23;;
18806;SDS011;9531;52.030;4.380;2022-11-25T22:19:57;527.43;;;159.70;;
18806;SDS011;9531;52.030;4.380;2022-11-25T22:22:52;540.37;;;187.40;;
18806;SDS011;9531;52.030;4.380;2022-11-25T22:25:33;533.47;;;184.27;;
18806;SDS011;9531;52.030;4.380;2022-11-25T22:28:15;533.17;;;183.23;;
18806;SDS011;9531;52.030;4.380;2022-11-25T22:31:04;540.80;;;183.53;;
18806;SDS011;9531;52.030;4.380;2022-11-25T22:35:16;533.87;;;193.50;;
18806;SDS011;9531;52.030;4.380;2022-11-25T22:38:11;525.90;;;189.10;;
18806;SDS011;9531;52.030;4.380;2022-11-25T22:41:11;535.00;;;190.60;;
18806;SDS011;9531;52.030;4.380;2022-11-25T22:44:41;535.40;;;190.83;;
18806;SDS011;9531;52.030;4.380;2022-11-25T22:47:42;525.47;;;168.17;;
18806;SDS011;9531;52.030;4.380;2022-11-25T22:50:27;527.50;;;170.10;;
18806;SDS011;9531;52.030;4.380;2022-11-25T23:00:22;532.73;;;178.30;;
